Time;durP1;ratioP1;P1;durP2;ratioP2;P2;SDS_P1;SDS_P2;PMS_P1;PMS_P2;Temp;Humidity;BMP_temperature;BMP_pressure;BME280_temperature;BME280_humidity;BME280_pressure;Samples;Min_cycle;Max_cycle;Signal;HPM_P1;HPM_P2
2022/10/26 00:00:17;;;;;;;8.10;2.55;;;;;;;;;;10358825;28;20034;-51
2022/10/26 00:05:18;;;;;;;9.00;2.00;;;;;;;;;;10365142;28;20041;-48
2022/10/26 00:10:20;;;;;;;5.73;2.20;;;;;;;;;;10368680;28;20150;-50
2022/10/26 00:15:20;;;;;;;7.30;2.13;;;;;;;;;;10370438;28;20033;-52
2022/10/26 00:20:21;;;;;;;6.03;1.97;;;;;;;;;;10371358;28;20590;-49
2022/10/26 00:25:23;;;;;;;6.60;1.98;;;;;;;;;;10357421;28;20040;-49
2022/10/26 00:30:25;;;;;;;8.73;2.55;;;;;;;;;;10364381;28;20048;-47
2022/10/26 00:35:25;;;;;;;7.00;1.92;;;;;;;;;;10366482;28;20400;-50
2022/10/26 00:40:26;;;;;;;6.78;2.13;;;;;;;;;;10371058;28;20481;-48
2022/10/26 00:45:28;;;;;;;5.55;1.70;;;;;;;;;;10367178;28;20144;-50
2022/10/26 00:50:33;;;;;;;5.22;1.95;;;;;;;;;;10365795;28;20481;-47
2022/10/26 00:55:34;;;;;;;6.65;2.10;;;;;;;;;;10370894;28;20030;-52
2022/10/26 01:00:35;;;;;;;5.18;2.42;;;;;;;;;;10370673;28;20374;-47
2022/10/26 01:05:37;;;;;;;4.82;1.80;;;;;;;;;;10360350;28;20042;-50
2022/10/26 01:10:38;;;;;;;4.60;1.70;;;;;;;;;;10366418;28;20358;-50
2022/10/26 01:16:04;;;;;;;2.72;1.50;;;;;;;;;;10368167;28;20029;-49
2022/10/26 01:21:13;;;;;;;4.25;1.60;;;;;;;;;;10366213;28;20037;-47
2022/10/26 01:26:14;;;;;;;6.50;1.80;;;;;;;;;;10369079;28;20045;-48
2022/10/26 01:31:17;;;;;;;9.85;1.80;;;;;;;;;;10368973;28;20029;-48
2022/10/26 01:36:31;;;;;;;8.77;2.15;;;;;;;;;;10369458;28;20551;-48
2022/10/26 01:41:34;;;;;;;7.20;1.83;;;;;;;;;;10367412;28;20418;-48
2022/10/26 01:46:37;;;;;;;9.13;2.60;;;;;;;;;;10367669;28;20168;-50
2022/10/26 01:51:39;;;;;;;6.53;1.83;;;;;;;;;;10368631;28;20137;-52
2022/10/26 01:56:40;;;;;;;7.50;1.70;;;;;;;;;;10369598;28;20029;-50
2022/10/26 02:01:41;;;;;;;5.05;1.70;;;;;;;;;;10368741;28;20104;-51
2022/10/26 02:06:53;;;;;;;3.35;1.50;;;;;;;;;;10367056;28;20096;-50
2022/10/26 02:11:54;;;;;;;4.72;1.88;;;;;;;;;;10362817;28;20174;-50
2022/10/26 02:16:55;;;;;;;4.20;1.50;;;;;;;;;;10365483;28;20030;-48
2022/10/26 02:22:15;;;;;;;4.10;1.60;;;;;;;;;;10372021;28;20018;-48
2022/10/26 02:27:19;;;;;;;2.60;1.60;;;;;;;;;;10366481;28;20053;-52
2022/10/26 02:32:21;;;;;;;5.05;1.55;;;;;;;;;;10367312;28;20022;-52
2022/10/26 02:37:22;;;;;;;3.58;1.50;;;;;;;;;;10364366;28;20396;-51
2022/10/26 02:42:23;;;;;;;3.75;1.80;;;;;;;;;;10367209;28;20033;-49
2022/10/26 02:47:25;;;;;;;3.63;1.70;;;;;;;;;;10365900;28;20477;-52
2022/10/26 02:52:29;;;;;;;2.50;1.30;;;;;;;;;;10364838;28;20022;-51
2022/10/26 02:57:38;;;;;;;6.65;1.60;;;;;;;;;;10366295;28;20033;-51
2022/10/26 03:02:40;;;;;;;3.00;1.30;;;;;;;;;;10366607;28;20061;-48
2022/10/26 03:07:41;;;;;;;2.08;1.40;;;;;;;;;;10362255;28;20134;-52
2022/10/26 03:12:41;;;;;;;1.90;1.50;;;;;;;;;;10357311;28;20018;-51
2022/10/26 03:17:41;;;;;;;3.27;1.33;;;;;;;;;;10363564;28;20046;-50
2022/10/26 03:22:41;;;;;;;3.13;1.40;;;;;;;;;;10366585;28;20034;-52
2022/10/26 03:27:42;;;;;;;2.67;1.50;;;;;;;;;;10365368;28;20500;-57
2022/10/26 03:32:42;;;;;;;2.85;1.23;;;;;;;;;;10365776;28;20050;-55
2022/10/26 03:37:43;;;;;;;2.72;1.55;;;;;;;;;;10365123;28;20444;-52
2022/10/26 03:42:43;;;;;;;3.65;1.15;;;;;;;;;;10367261;28;20492;-48
2022/10/26 03:47:44;;;;;;;3.17;1.50;;;;;;;;;;10372645;28;20133;-52
2022/10/26 03:52:45;;;;;;;3.78;1.52;;;;;;;;;;10372744;28;20538;-51
2022/10/26 03:57:46;;;;;;;2.83;1.55;;;;;;;;;;10374510;28;20045;-51
2022/10/26 04:02:52;;;;;;;2.50;1.27;;;;;;;;;;10372222;28;20026;-52
2022/10/26 04:07:53;;;;;;;4.60;1.50;;;;;;;;;;10371250;28;20029;-51
2022/10/26 04:12:54;;;;;;;6.72;1.40;;;;;;;;;;10371837;28;20059;-49
2022/10/26 04:17:58;;;;;;;2.50;1.60;;;;;;;;;;10372088;28;20473;-51
2022/10/26 04:22:58;;;;;;;1.42;0.90;;;;;;;;;;10372538;28;20289;-50
2022/10/26 04:27:59;;;;;;;2.65;1.25;;;;;;;;;;10371402;28;20670;-50
2022/10/26 04:32:59;;;;;;;1.58;1.27;;;;;;;;;;10372021;28;20037;-52
2022/10/26 04:38:00;;;;;;;2.42;1.20;;;;;;;;;;10370636;28;20052;-48
2022/10/26 04:43:00;;;;;;;2.20;1.40;;;;;;;;;;10371436;28;20022;-53
2022/10/26 04:48:05;;;;;;;2.08;1.25;;;;;;;;;;10357920;28;20026;-47
2022/10/26 04:53:08;;;;;;;2.35;1.30;;;;;;;;;;10370795;28;20029;-51
2022/10/26 04:58:08;;;;;;;2.17;1.23;;;;;;;;;;10370348;28;20040;-52
2022/10/26 05:03:10;;;;;;;1.88;1.05;;;;;;;;;;10367008;28;20034;-51
2022/10/26 05:08:10;;;;;;;3.35;1.30;;;;;;;;;;10362581;28;20249;-52
2022/10/26 05:13:10;;;;;;;3.05;1.30;;;;;;;;;;10355652;28;20208;-48
2022/10/26 05:18:11;;;;;;;5.18;1.08;;;;;;;;;;10369420;28;20532;-47
2022/10/26 05:23:11;;;;;;;2.47;1.10;;;;;;;;;;10369620;28;20354;-52
2022/10/26 05:28:12;;;;;;;5.17;1.40;;;;;;;;;;10368373;28;20554;-51
2022/10/26 05:33:13;;;;;;;6.03;1.30;;;;;;;;;;10366957;28;20026;-52
2022/10/26 05:38:15;;;;;;;5.53;1.10;;;;;;;;;;10371765;28;20049;-51
2022/10/26 05:43:15;;;;;;;2.38;1.33;;;;;;;;;;10373910;28;20080;-52
2022/10/26 05:48:15;;;;;;;2.33;1.25;;;;;;;;;;10368063;28;20038;-51
2022/10/26 05:53:16;;;;;;;1.63;1.30;;;;;;;;;;10366483;28;20030;-50
2022/10/26 05:58:16;;;;;;;4.70;1.40;;;;;;;;;;10367898;28;20464;-56
2022/10/26 06:03:35;;;;;;;6.55;1.40;;;;;;;;;;10360003;28;20128;-56
2022/10/26 06:08:35;;;;;;;5.38;1.40;;;;;;;;;;10353414;28;20030;-56
2022/10/26 06:13:35;;;;;;;4.10;1.40;;;;;;;;;;10337637;28;20035;-54
2022/10/26 06:18:56;;;;;;;2.50;1.47;;;;;;;;;;10344728;28;20497;-55
2022/10/26 06:24:17;;;;;;;3.67;1.50;;;;;;;;;;10314702;28;20160;-56
2022/10/26 06:29:20;;;;;;;4.05;1.60;;;;;;;;;;10313575;28;20121;-52
2022/10/26 06:34:23;;;;;;;3.00;1.38;;;;;;;;;;10332468;28;20028;-53
2022/10/26 06:39:24;;;;;;;4.65;1.45;;;;;;;;;;10332938;28;20494;-54
2022/10/26 06:44:25;;;;;;;5.00;1.63;;;;;;;;;;10334677;28;20034;-54
2022/10/26 06:49:30;;;;;;;7.93;1.87;;;;;;;;;;10335009;28;20034;-54
2022/10/26 06:54:50;;;;;;;2.17;1.40;;;;;;;;;;10334770;28;20483;-55
2022/10/26 06:59:52;;;;;;;3.03;1.55;;;;;;;;;;10384151;23;20077;-64
2022/10/26 07:04:52;;;;;;;4.05;1.58;;;;;;;;;;10373588;28;20052;-64
2022/10/26 07:09:52;;;;;;;3.10;1.75;;;;;;;;;;10374899;28;20036;-64
2022/10/26 07:14:53;;;;;;;2.57;1.50;;;;;;;;;;10382664;28;20025;-64
2022/10/26 07:19:53;;;;;;;4.13;1.83;;;;;;;;;;10396289;28;20044;-64
2022/10/26 07:24:53;;;;;;;1.33;1.20;;;;;;;;;;10402117;28;20030;-63
2022/10/26 07:29:54;;;;;;;5.05;1.52;;;;;;;;;;10405434;28;20026;-63
2022/10/26 07:34:54;;;;;;;7.60;2.08;;;;;;;;;;10404962;28;20389;-63
2022/10/26 07:39:54;;;;;;;4.28;1.83;;;;;;;;;;10398572;28;20109;-63
2022/10/26 07:44:55;;;;;;;5.53;1.55;;;;;;;;;;10392660;28;20092;-63
2022/10/26 07:49:55;;;;;;;5.20;2.03;;;;;;;;;;10397823;28;20075;-64
2022/10/26 07:54:55;;;;;;;3.22;1.65;;;;;;;;;;10398411;28;20022;-64
2022/10/26 07:59:55;;;;;;;4.60;1.48;;;;;;;;;;10396736;28;20042;-64
2022/10/26 08:04:56;;;;;;;3.47;1.20;;;;;;;;;;10387472;28;20026;-64
2022/10/26 08:09:56;;;;;;;2.25;1.65;;;;;;;;;;10395362;28;20013;-64
2022/10/26 08:14:56;;;;;;;2.80;1.50;;;;;;;;;;10388977;28;20029;-64
2022/10/26 08:19:56;;;;;;;3.05;1.70;;;;;;;;;;10383846;28;20037;-64
2022/10/26 08:24:57;;;;;;;3.90;1.45;;;;;;;;;;10401299;28;20145;-64
2022/10/26 08:29:57;;;;;;;6.10;1.67;;;;;;;;;;10395829;28;20540;-64
2022/10/26 08:34:57;;;;;;;4.32;1.55;;;;;;;;;;10407367;28;20033;-64
2022/10/26 08:39:57;;;;;;;3.30;1.60;;;;;;;;;;10398673;28;20227;-64
2022/10/26 08:45:03;;;;;;;3.58;1.88;;;;;;;;;;10411212;28;20037;-64
2022/10/26 08:50:11;;;;;;;3.08;1.50;;;;;;;;;;10405288;28;20025;-64
2022/10/26 08:55:14;;;;;;;2.90;1.20;;;;;;;;;;10410414;28;20455;-64
2022/10/26 09:00:19;;;;;;;2.88;1.50;;;;;;;;;;10395350;28;20037;-64
2022/10/26 09:05:29;;;;;;;3.08;1.40;;;;;;;;;;10408301;28;20034;-64
2022/10/26 09:10:29;;;;;;;4.60;1.60;;;;;;;;;;10401819;28;20021;-64
2022/10/26 09:15:35;;;;;;;3.28;1.50;;;;;;;;;;10402870;28;20033;-65
2022/10/26 09:20:40;;;;;;;7.72;1.50;;;;;;;;;;10393233;28;20865;-65
2022/10/26 09:25:41;;;;;;;6.07;1.60;;;;;;;;;;10412271;28;21346;-65
2022/10/26 09:30:43;;;;;;;4.17;1.57;;;;;;;;;;10409261;28;20596;-66
2022/10/26 09:35:43;;;;;;;4.32;1.50;;;;;;;;;;10386642;28;20100;-66
2022/10/26 09:40:44;;;;;;;2.53;1.50;;;;;;;;;;10387932;28;20519;-66
2022/10/26 09:45:46;;;;;;;4.15;1.50;;;;;;;;;;10405746;28;20048;-65
2022/10/26 09:50:47;;;;;;;3.47;1.60;;;;;;;;;;10411634;28;20030;-65
2022/10/26 09:55:49;;;;;;;1.88;1.33;;;;;;;;;;10385458;28;20493;-65
2022/10/26 10:00:50;;;;;;;3.40;1.65;;;;;;;;;;10398306;28;20512;-65
2022/10/26 10:05:51;;;;;;;1.98;1.30;;;;;;;;;;10408268;28;20026;-65
2022/10/26 10:10:54;;;;;;;4.18;1.42;;;;;;;;;;10394994;28;20037;-65
2022/10/26 10:16:01;;;;;;;3.72;1.92;;;;;;;;;;10396044;28;20036;-65
2022/10/26 10:21:02;;;;;;;1.42;1.30;;;;;;;;;;10397199;28;20021;-65
2022/10/26 10:26:02;;;;;;;3.38;1.50;;;;;;;;;;10386987;28;20037;-65
2022/10/26 10:31:17;;;;;;;3.17;1.70;;;;;;;;;;10391478;28;20029;-65
2022/10/26 10:36:19;;;;;;;1.52;1.33;;;;;;;;;;10404264;28;20109;-65
2022/10/26 10:41:29;;;;;;;1.60;1.40;;;;;;;;;;10414248;28;20029;-65
2022/10/26 10:46:30;;;;;;;2.75;1.45;;;;;;;;;;10394302;28;20029;-65
2022/10/26 10:51:35;;;;;;;4.47;1.63;;;;;;;;;;10392798;28;20384;-65
2022/10/26 10:56:53;;;;;;;4.30;1.58;;;;;;;;;;10405797;28;20033;-65
2022/10/26 11:01:54;;;;;;;2.72;1.35;;;;;;;;;;10386728;28;20041;-62
2022/10/26 11:06:56;;;;;;;2.38;1.40;;;;;;;;;;10406428;28;20492;-65
2022/10/26 11:11:57;;;;;;;4.75;1.40;;;;;;;;;;10405308;28;20377;-65
2022/10/26 11:17:03;;;;;;;3.05;1.48;;;;;;;;;;10409622;28;20083;-64
2022/10/26 11:22:04;;;;;;;4.25;1.65;;;;;;;;;;10392668;28;20065;-64
2022/10/26 11:27:07;;;;;;;3.42;1.58;;;;;;;;;;10416930;28;20102;-63
2022/10/26 11:32:43;;;;;;;2.42;1.30;;;;;;;;;;10406098;28;20030;-63
2022/10/26 11:38:00;;;;;;;4.88;1.38;;;;;;;;;;10316759;28;20057;-65
2022/10/26 11:43:08;;;;;;;4.05;1.58;;;;;;;;;;10316336;28;20060;-63
2022/10/26 11:48:23;;;;;;;4.05;1.60;;;;;;;;;;10316534;28;20042;-63
2022/10/26 11:53:26;;;;;;;4.63;1.67;;;;;;;;;;10317272;28;20042;-63
2022/10/26 11:58:27;;;;;;;1.98;1.40;;;;;;;;;;10317816;28;20034;-63
2022/10/26 12:03:29;;;;;;;3.13;1.77;;;;;;;;;;10316894;28;20553;-64
2022/10/26 12:08:33;;;;;;;2.60;1.60;;;;;;;;;;10329033;28;20042;-63
2022/10/26 12:13:37;;;;;;;3.10;1.58;;;;;;;;;;10394867;28;20034;-64
2022/10/26 12:18:43;;;;;;;4.05;1.55;;;;;;;;;;10400490;28;20112;-63
2022/10/26 12:23:57;;;;;;;3.10;1.60;;;;;;;;;;10411899;28;20078;-64
2022/10/26 12:29:00;;;;;;;4.07;1.58;;;;;;;;;;10402450;28;20033;-64
2022/10/26 12:34:06;;;;;;;5.15;1.92;;;;;;;;;;10410822;28;20438;-64
2022/10/26 12:39:24;;;;;;;1.92;1.65;;;;;;;;;;10404409;28;20052;-63
2022/10/26 12:44:31;;;;;;;4.95;1.70;;;;;;;;;;10387589;28;20054;-64
2022/10/26 12:49:50;;;;;;;2.97;1.80;;;;;;;;;;10398218;28;20276;-65
2022/10/26 12:55:01;;;;;;;1.75;1.60;;;;;;;;;;10387118;28;20025;-63
2022/10/26 13:00:04;;;;;;;2.47;1.73;;;;;;;;;;10385930;28;20042;-64
2022/10/26 13:05:19;;;;;;;1.70;1.60;;;;;;;;;;10396757;28;20091;-63
2022/10/26 13:10:21;;;;;;;2.13;1.70;;;;;;;;;;10394547;28;20028;-64
2022/10/26 13:15:29;;;;;;;2.05;1.75;;;;;;;;;;10390925;28;20110;-63
2022/10/26 13:20:30;;;;;;;3.85;1.70;;;;;;;;;;10386277;28;20504;-62
2022/10/26 13:25:30;;;;;;;3.85;1.63;;;;;;;;;;10402926;28;20041;-63
2022/10/26 13:30:34;;;;;;;3.17;1.87;;;;;;;;;;10403578;28;20381;-63
2022/10/26 13:35:38;;;;;;;5.15;2.03;;;;;;;;;;10406290;28;20038;-63
2022/10/26 13:40:38;;;;;;;6.07;1.88;;;;;;;;;;10407544;28;20037;-60
2022/10/26 13:45:46;;;;;;;8.98;2.20;;;;;;;;;;10405005;28;20522;-60
2022/10/26 13:50:48;;;;;;;3.60;2.05;;;;;;;;;;10405613;28;20112;-59
2022/10/26 13:56:07;;;;;;;4.65;1.98;;;;;;;;;;10393019;28;20269;-59
2022/10/26 14:01:10;;;;;;;3.22;1.73;;;;;;;;;;10394770;28;20080;-59
2022/10/26 14:06:21;;;;;;;6.55;2.20;;;;;;;;;;10408110;28;20042;-59
2022/10/26 14:11:26;;;;;;;7.43;2.00;;;;;;;;;;10408670;28;20032;-59
2022/10/26 14:16:28;;;;;;;3.10;1.70;;;;;;;;;;10410676;28;20021;-59
2022/10/26 14:21:29;;;;;;;6.70;2.08;;;;;;;;;;10404522;28;20033;-60
2022/10/26 14:26:39;;;;;;;4.60;2.20;;;;;;;;;;10400760;28;20022;-59
2022/10/26 14:31:39;;;;;;;3.30;2.10;;;;;;;;;;10398035;28;20115;-60
2022/10/26 14:36:55;;;;;;;2.38;1.85;;;;;;;;;;10407931;28;20616;-59
2022/10/26 14:41:55;;;;;;;2.38;1.83;;;;;;;;;;10406723;28;20068;-59
2022/10/26 14:46:56;;;;;;;2.80;1.70;;;;;;;;;;10407381;28;20120;-60
2022/10/26 14:51:57;;;;;;;4.10;1.87;;;;;;;;;;10406078;28;20424;-61
2022/10/26 14:57:01;;;;;;;3.03;1.70;;;;;;;;;;10399109;28;20087;-61
2022/10/26 15:02:15;;;;;;;4.45;1.75;;;;;;;;;;10394717;28;20037;-60
2022/10/26 15:07:16;;;;;;;5.47;1.67;;;;;;;;;;10400797;28;20112;-61
2022/10/26 15:12:37;;;;;;;2.70;1.75;;;;;;;;;;10404702;28;20585;-60
2022/10/26 15:17:40;;;;;;;4.93;2.00;;;;;;;;;;10400182;28;20612;-60
2022/10/26 15:22:41;;;;;;;4.63;1.60;;;;;;;;;;10403988;28;20291;-60
2022/10/26 15:27:42;;;;;;;8.43;1.92;;;;;;;;;;10387127;28;20033;-60
2022/10/26 15:32:42;;;;;;;4.90;2.00;;;;;;;;;;10408634;28;20108;-60
2022/10/26 15:37:42;;;;;;;4.20;1.90;;;;;;;;;;10392016;28;20556;-60
2022/10/26 15:42:44;;;;;;;4.22;1.95;;;;;;;;;;10419250;28;20042;-61
2022/10/26 15:47:46;;;;;;;6.00;3.00;;;;;;;;;;10396869;28;20038;-61
2022/10/26 15:52:46;;;;;;;4.28;2.00;;;;;;;;;;10393160;28;20112;-60
2022/10/26 15:57:46;;;;;;;2.30;1.80;;;;;;;;;;10395320;28;20408;-60
2022/10/26 16:02:46;;;;;;;2.45;1.80;;;;;;;;;;10400233;28;20053;-61
2022/10/26 16:07:47;;;;;;;2.20;2.00;;;;;;;;;;10400336;28;20030;-60
2022/10/26 16:12:49;;;;;;;2.25;1.90;;;;;;;;;;10412696;28;20143;-60
2022/10/26 16:17:49;;;;;;;4.80;1.63;;;;;;;;;;10404117;28;20033;-59
2022/10/26 16:22:50;;;;;;;3.92;1.88;;;;;;;;;;10401132;28;20064;-59
2022/10/26 16:27:51;;;;;;;2.17;1.80;;;;;;;;;;10412916;28;20044;-58
2022/10/26 16:32:51;;;;;;;2.20;1.92;;;;;;;;;;10412963;28;20489;-60
2022/10/26 16:37:52;;;;;;;4.78;2.00;;;;;;;;;;10410897;28;20021;-61
2022/10/26 16:42:52;;;;;;;3.58;1.70;;;;;;;;;;10399475;28;20232;-62
2022/10/26 16:47:52;;;;;;;2.80;1.80;;;;;;;;;;10411359;28;20029;-61
2022/10/26 16:52:52;;;;;;;1.90;1.75;;;;;;;;;;10410877;28;20036;-61
2022/10/26 16:57:53;;;;;;;7.20;1.80;;;;;;;;;;10397916;28;20045;-60
2022/10/26 17:02:53;;;;;;;4.85;2.13;;;;;;;;;;10412129;28;20134;-61
2022/10/26 17:07:53;;;;;;;3.15;2.03;;;;;;;;;;10411354;28;20041;-61
2022/10/26 17:12:54;;;;;;;10.37;2.20;;;;;;;;;;10402851;28;20033;-61
2022/10/26 17:17:54;;;;;;;10.57;2.80;;;;;;;;;;10394894;28;20030;-59
2022/10/26 17:22:56;;;;;;;4.75;1.92;;;;;;;;;;10410617;28;20109;-60
2022/10/26 17:27:57;;;;;;;6.90;2.42;;;;;;;;;;10409526;28;20052;-59
2022/10/26 17:32:57;;;;;;;4.43;2.40;;;;;;;;;;10407831;28;20033;-60
2022/10/26 17:37:58;;;;;;;3.58;2.08;;;;;;;;;;10406614;28;20088;-60
2022/10/26 17:42:59;;;;;;;4.90;2.35;;;;;;;;;;10403148;28;20033;-59
2022/10/26 17:47:59;;;;;;;7.40;2.60;;;;;;;;;;10402392;28;20124;-61
2022/10/26 17:52:59;;;;;;;8.32;2.35;;;;;;;;;;10405502;28;20033;-61
2022/10/26 17:57:59;;;;;;;6.90;2.30;;;;;;;;;;10405047;28;20045;-62
2022/10/26 18:03:00;;;;;;;5.55;2.17;;;;;;;;;;10400808;28;20043;-62
2022/10/26 18:08:00;;;;;;;9.95;2.53;;;;;;;;;;10408814;28;20033;-62
2022/10/26 18:13:00;;;;;;;5.70;2.50;;;;;;;;;;10403954;28;20112;-61
2022/10/26 18:18:00;;;;;;;5.38;2.65;;;;;;;;;;10396375;28;20062;-62
2022/10/26 18:23:01;;;;;;;8.25;2.60;;;;;;;;;;10404534;28;20030;-61
2022/10/26 18:28:01;;;;;;;5.43;3.08;;;;;;;;;;10405265;28;20480;-61
2022/10/26 18:33:01;;;;;;;5.03;2.53;;;;;;;;;;10401634;28;20044;-59
2022/10/26 18:38:02;;;;;;;5.50;2.60;;;;;;;;;;10404160;28;20033;-61
2022/10/26 18:43:02;;;;;;;5.60;2.83;;;;;;;;;;10393544;28;20037;-61
2022/10/26 18:48:02;;;;;;;12.98;2.90;;;;;;;;;;10397113;28;20500;-61
2022/10/26 18:53:05;;;;;;;6.77;2.80;;;;;;;;;;10404049;28;20366;-59
2022/10/26 18:58:09;;;;;;;6.80;2.83;;;;;;;;;;10409462;28;20787;-60
2022/10/26 19:03:09;;;;;;;3.63;2.35;;;;;;;;;;10407587;28;20033;-58
2022/10/26 19:08:10;;;;;;;3.83;2.67;;;;;;;;;;10407465;28;20087;-58
2022/10/26 19:13:10;;;;;;;4.95;2.40;;;;;;;;;;10407192;28;20107;-60
2022/10/26 19:18:10;;;;;;;4.35;2.47;;;;;;;;;;10393287;28;20036;-58
2022/10/26 19:23:10;;;;;;;3.88;2.80;;;;;;;;;;10387494;28;20030;-60
2022/10/26 19:28:11;;;;;;;4.30;2.10;;;;;;;;;;10388417;28;20622;-60
2022/10/26 19:33:11;;;;;;;4.25;2.55;;;;;;;;;;10398939;28;20384;-59
2022/10/26 19:38:11;;;;;;;5.88;2.55;;;;;;;;;;10397384;28;20045;-58
2022/10/26 19:43:13;;;;;;;5.75;2.80;;;;;;;;;;10399789;28;20156;-60
2022/10/26 19:48:13;;;;;;;11.43;2.75;;;;;;;;;;10393087;28;20445;-61
2022/10/26 19:53:16;;;;;;;4.07;2.40;;;;;;;;;;10396814;28;20113;-63
2022/10/26 19:58:16;;;;;;;5.22;2.60;;;;;;;;;;10395995;28;20056;-61
2022/10/26 20:03:16;;;;;;;4.77;2.53;;;;;;;;;;10408703;28;20021;-59
2022/10/26 20:08:18;;;;;;;5.15;2.47;;;;;;;;;;10404472;28;20083;-62
2022/10/26 20:13:19;;;;;;;3.25;2.38;;;;;;;;;;10398307;28;20073;-60
2022/10/26 20:18:19;;;;;;;5.68;2.97;;;;;;;;;;10389562;28;20559;-61
2022/10/26 20:23:19;;;;;;;2.85;2.55;;;;;;;;;;10387016;28;20056;-65
2022/10/26 20:28:20;;;;;;;8.45;2.90;;;;;;;;;;10390533;28;20107;-61
2022/10/26 20:33:20;;;;;;;7.32;3.38;;;;;;;;;;10401899;28;20025;-63
2022/10/26 20:38:20;;;;;;;11.13;3.17;;;;;;;;;;10398245;28;20116;-62
2022/10/26 20:43:21;;;;;;;11.40;3.60;;;;;;;;;;10405142;28;20537;-59
2022/10/26 20:48:22;;;;;;;7.88;2.72;;;;;;;;;;10390681;28;20080;-58
2022/10/26 20:53:25;;;;;;;10.60;3.05;;;;;;;;;;10407004;28;20025;-59
2022/10/26 20:58:46;;;;;;;11.48;2.92;;;;;;;;;;10385605;28;20531;-60
2022/10/26 21:03:46;;;;;;;6.82;3.03;;;;;;;;;;10406105;28;20036;-60
2022/10/26 21:08:50;;;;;;;8.68;2.70;;;;;;;;;;10390852;28;20394;-61
2022/10/26 21:13:51;;;;;;;5.72;3.25;;;;;;;;;;10391219;28;20026;-61
2022/10/26 21:18:52;;;;;;;3.47;2.55;;;;;;;;;;10404320;28;20030;-59
2022/10/26 21:23:52;;;;;;;5.55;2.60;;;;;;;;;;10411764;28;20032;-58
2022/10/26 21:28:53;;;;;;;5.53;2.97;;;;;;;;;;10404575;28;20030;-58
2022/10/26 21:33:54;;;;;;;4.30;2.30;;;;;;;;;;10412075;28;20025;-60
2022/10/26 21:38:54;;;;;;;5.47;2.83;;;;;;;;;;10402167;28;20026;-61
2022/10/26 21:43:54;;;;;;;5.23;2.20;;;;;;;;;;10384628;28;20058;-60
2022/10/26 21:48:55;;;;;;;4.10;2.40;;;;;;;;;;10405372;28;20021;-59
2022/10/26 21:53:56;;;;;;;2.65;2.22;;;;;;;;;;10387531;28;20033;-60
2022/10/26 21:58:57;;;;;;;5.30;1.90;;;;;;;;;;10409440;28;20041;-61
2022/10/26 22:03:58;;;;;;;6.28;2.35;;;;;;;;;;10394428;28;20469;-62
2022/10/26 22:08:58;;;;;;;7.10;2.42;;;;;;;;;;10386409;28;20057;-62
2022/10/26 22:13:58;;;;;;;2.97;2.13;;;;;;;;;;10397586;28;20033;-61
2022/10/26 22:19:03;;;;;;;7.50;2.30;;;;;;;;;;10391472;28;20042;-61
2022/10/26 22:24:04;;;;;;;6.10;1.95;;;;;;;;;;10391253;28;20029;-60
2022/10/26 22:29:04;;;;;;;7.18;2.58;;;;;;;;;;10391620;28;20022;-61
2022/10/26 22:34:06;;;;;;;3.53;2.30;;;;;;;;;;10400802;28;20043;-60
2022/10/26 22:39:06;;;;;;;3.92;2.25;;;;;;;;;;10398286;28;20026;-60
2022/10/26 22:44:07;;;;;;;6.30;2.10;;;;;;;;;;10394867;28;20527;-61
2022/10/26 22:49:07;;;;;;;4.32;1.80;;;;;;;;;;10396540;28;20499;-61
2022/10/26 22:54:07;;;;;;;2.38;2.05;;;;;;;;;;10398277;28;20056;-61
2022/10/26 22:59:07;;;;;;;4.25;2.05;;;;;;;;;;10400446;28;20042;-61
2022/10/26 23:04:09;;;;;;;2.55;1.70;;;;;;;;;;10396341;28;20116;-61
2022/10/26 23:09:10;;;;;;;1.95;1.73;;;;;;;;;;10396673;28;20017;-61
2022/10/26 23:14:10;;;;;;;7.87;2.10;;;;;;;;;;10399076;28;20033;-60
2022/10/26 23:19:10;;;;;;;2.77;1.97;;;;;;;;;;10386316;28;20105;-60
2022/10/26 23:24:10;;;;;;;2.88;1.83;;;;;;;;;;10396493;28;20038;-61
2022/10/26 23:29:11;;;;;;;3.70;2.25;;;;;;;;;;10395795;28;20029;-61
2022/10/26 23:34:11;;;;;;;2.92;2.03;;;;;;;;;;10394277;28;20029;-60
2022/10/26 23:39:11;;;;;;;2.13;1.70;;;;;;;;;;10393873;28;20152;-60
2022/10/26 23:44:11;;;;;;;2.15;1.90;;;;;;;;;;10394750;28;20030;-60
2022/10/26 23:49:12;;;;;;;3.88;2.10;;;;;;;;;;10396546;28;20079;-59
2022/10/26 23:54:12;;;;;;;5.73;2.07;;;;;;;;;;10396559;28;20038;-61
2022/10/26 23:59:12;;;;;;;2.15;1.80;;;;;;;;;;10396292;28;20033;-59
